Time;durP1;ratioP1;P1;durP2;ratioP2;P2;SDS_P1;SDS_P2;PMS_P1;PMS_P2;Temp;Humidity;BMP_temperature;BMP_pressure;BME280_temperature;BME280_humidity;BME280_pressure;Samples;Min_cycle;Max_cycle;Signal;HPM_P1;HPM_P2
2023/10/14 00:00:24;;;;;;;5.70;3.20;;;24.20;56.30;;;;;;926856;151;27204;-75
2023/10/14 00:02:28;;;;;;;3.67;3.15;;;24.30;56.30;;;;;;928428;151;27792;-75
2023/10/14 00:04:55;;;;;;;5.80;3.30;;;24.30;56.10;;;;;;942341;150;27342;-75
2023/10/14 00:07:25;;;;;;;6.00;3.50;;;24.40;56.10;;;;;;932556;151;27898;-76
2023/10/14 00:09:50;;;;;;;5.00;3.47;;;24.40;55.90;;;;;;945482;149;27426;-75
2023/10/14 00:12:15;;;;;;;5.35;3.15;;;24.50;55.90;;;;;;927650;151;28490;-75
2023/10/14 00:14:44;;;;;;;3.85;2.98;;;24.50;55.80;;;;;;932415;151;27381;-75
2023/10/14 00:17:20;;;;;;;7.37;3.45;;;24.60;55.80;;;;;;931116;150;27278;-75
2023/10/14 00:19:49;;;;;;;3.80;3.15;;;24.70;55.70;;;;;;929187;151;27359;-75
2023/10/14 00:22:10;;;;;;;3.70;3.30;;;24.70;54.90;;;;;;942824;149;27330;-75
2023/10/14 00:24:39;;;;;;;4.22;3.00;;;24.70;55.50;;;;;;941186;149;28042;-75
2023/10/14 00:27:07;;;;;;;5.75;3.27;;;24.70;55.40;;;;;;943765;149;27393;-75
2023/10/14 00:29:30;;;;;;;4.05;3.22;;;24.80;55.30;;;;;;942914;148;27356;-75
2023/10/14 00:31:58;;;;;;;7.83;3.12;;;24.80;55.30;;;;;;944497;149;27366;-75
2023/10/14 00:34:25;;;;;;;6.83;3.20;;;24.80;55.20;;;;;;928443;151;27450;-75
2023/10/14 00:36:56;;;;;;;4.15;3.25;;;24.90;55.10;;;;;;932454;150;27417;-75
2023/10/14 00:39:26;;;;;;;4.15;3.10;;;24.90;55.10;;;;;;934024;151;27447;-76
2023/10/14 00:41:52;;;;;;;6.15;3.37;;;24.90;55.00;;;;;;935292;148;27350;-76
2023/10/14 00:44:17;;;;;;;6.37;3.20;;;24.80;55.10;;;;;;940300;149;27326;-76
2023/10/14 00:46:53;;;;;;;5.00;3.27;;;24.80;55.00;;;;;;940280;150;27386;-76
2023/10/14 00:49:11;;;;;;;4.70;3.20;;;24.80;55.10;;;;;;934954;151;27419;-76
2023/10/14 00:51:42;;;;;;;4.30;3.17;;;24.80;55.20;;;;;;940544;149;27916;-76
2023/10/14 00:54:05;;;;;;;7.85;3.30;;;24.70;55.20;;;;;;941146;148;27364;-76
2023/10/14 00:56:31;;;;;;;3.75;3.25;;;24.70;55.20;;;;;;926565;151;28322;-76
2023/10/14 00:59:02;;;;;;;5.50;3.80;;;24.70;55.30;;;;;;932501;151;27413;-76
2023/10/14 01:01:28;;;;;;;5.83;3.92;;;24.80;55.30;;;;;;931525;151;27387;-76
2023/10/14 01:03:56;;;;;;;7.53;4.42;;;24.80;55.40;;;;;;932065;151;27410;-76
2023/10/14 01:06:38;;;;;;;4.65;3.17;;;24.80;55.40;;;;;;928064;151;27400;-75
2023/10/14 01:09:10;;;;;;;10.28;3.47;;;24.80;55.40;;;;;;938704;151;27497;-75
2023/10/14 01:11:29;;;;;;;6.72;3.20;;;24.80;55.40;;;;;;946693;148;27322;-76
2023/10/14 01:13:54;;;;;;;5.62;3.75;;;24.80;55.40;;;;;;934239;151;27410;-76
2023/10/14 01:16:24;;;;;;;6.35;3.47;;;24.80;55.40;;;;;;936259;151;27452;-76
2023/10/14 01:18:47;;;;;;;4.35;3.58;;;24.80;55.40;;;;;;943158;149;27840;-75
2023/10/14 01:21:14;;;;;;;4.40;4.00;;;24.80;55.50;;;;;;945093;148;27439;-76
2023/10/14 01:23:44;;;;;;;4.85;3.33;;;24.90;55.50;;;;;;945347;148;27391;-75
2023/10/14 01:26:09;;;;;;;6.25;3.02;;;24.90;54.90;;;;;;946722;148;27689;-76
2023/10/14 01:28:42;;;;;;;6.97;3.67;;;24.90;55.50;;;;;;947048;147;27367;-75
2023/10/14 01:34:04;;;;;;;7.00;3.37;;;24.90;55.50;;;;;;929077;150;27294;-76
2023/10/14 01:36:32;;;;;;;7.55;3.52;;;24.90;55.50;;;;;;929032;151;27365;-76
2023/10/14 01:38:58;;;;;;;3.98;3.35;;;24.90;55.50;;;;;;943852;149;27306;-76
2023/10/14 01:41:25;;;;;;;5.90;3.87;;;24.80;55.50;;;;;;930162;150;27419;-76
2023/10/14 01:43:52;;;;;;;4.75;3.55;;;24.80;55.60;;;;;;930574;150;27388;-76
2023/10/14 01:46:18;;;;;;;3.95;3.15;;;24.80;55.70;;;;;;930526;150;27816;-76
2023/10/14 01:48:45;;;;;;;5.22;3.62;;;24.80;55.80;;;;;;946922;147;27442;-80
2023/10/14 01:51:11;;;;;;;8.20;3.98;;;24.80;55.90;;;;;;945991;147;27443;-77
2023/10/14 01:53:38;;;;;;;9.60;4.17;;;24.80;55.90;;;;;;947010;148;27398;-79
2023/10/14 01:56:06;;;;;;;7.53;4.00;;;24.80;56.00;;;;;;929286;151;27348;-79
2023/10/14 01:58:33;;;;;;;3.70;3.33;;;24.80;56.00;;;;;;943452;148;27352;-79
2023/10/14 02:03:43;;;;;;;6.97;3.80;;;24.70;56.00;;;;;;945069;148;27531;-75
2023/10/14 02:06:18;;;;;;;4.95;3.77;;;24.70;56.10;;;;;;945528;147;28447;-79
2023/10/14 02:08:44;;;;;;;5.60;4.47;;;24.70;56.10;;;;;;946845;148;28135;-79
2023/10/14 02:11:11;;;;;;;6.85;3.75;;;24.70;56.20;;;;;;944749;148;27470;-80
2023/10/14 02:13:37;;;;;;;5.05;3.85;;;24.60;56.20;;;;;;948068;148;27354;-80
2023/10/14 02:16:10;;;;;;;4.50;3.37;;;24.60;56.40;;;;;;935455;149;27366;-79
2023/10/14 02:18:39;;;;;;;6.37;3.65;;;24.50;56.40;;;;;;946322;147;27433;-76
2023/10/14 02:21:16;;;;;;;6.12;3.65;;;24.50;56.50;;;;;;929220;150;27292;-79
2023/10/14 02:23:49;;;;;;;5.42;3.45;;;24.50;56.60;;;;;;945056;147;27448;-80
2023/10/14 02:26:30;;;;;;;3.72;3.20;;;24.50;56.50;;;;;;927186;150;27539;-80
2023/10/14 02:28:52;;;;;;;7.22;3.60;;;24.40;56.60;;;;;;938074;150;27319;-78
2023/10/14 02:31:18;;;;;;;4.53;3.30;;;24.40;56.50;;;;;;928875;150;27351;-80
2023/10/14 02:33:47;;;;;;;4.40;3.20;;;24.30;56.60;;;;;;929731;150;27416;-80
2023/10/14 02:36:16;;;;;;;7.35;3.50;;;24.30;56.70;;;;;;926423;151;27428;-77
2023/10/14 02:38:44;;;;;;;4.78;3.12;;;24.20;56.70;;;;;;946890;147;27263;-80
2023/10/14 02:41:10;;;;;;;4.40;3.40;;;24.20;56.80;;;;;;928682;150;27890;-80
2023/10/14 02:43:41;;;;;;;7.37;3.55;;;24.10;56.80;;;;;;945819;148;27425;-79
2023/10/14 02:46:10;;;;;;;4.22;3.22;;;24.10;56.90;;;;;;929082;150;27901;-79
2023/10/14 02:48:52;;;;;;;6.58;3.05;;;24.00;57.00;;;;;;939530;149;27861;-80
2023/10/14 02:51:06;;;;;;;4.12;2.77;;;24.00;57.00;;;;;;955504;147;27350;-80
2023/10/14 02:53:28;;;;;;;7.90;2.92;;;24.00;57.10;;;;;;944703;148;27320;-76
2023/10/14 02:56:04;;;;;;;2.90;2.60;;;24.00;57.20;;;;;;929852;150;28737;-81
2023/10/14 02:58:22;;;;;;;6.00;3.02;;;24.00;57.20;;;;;;946237;147;27365;-76
2023/10/14 03:00:49;;;;;;;5.00;2.87;;;24.00;57.20;;;;;;929018;150;27326;-75
2023/10/14 03:03:14;;;;;;;3.52;2.67;;;24.00;57.30;;;;;;927836;151;27447;-77
2023/10/14 03:05:53;;;;;;;5.03;3.00;;;24.00;57.30;;;;;;946414;148;27350;-75
2023/10/14 03:08:19;;;;;;;4.62;3.10;;;24.00;57.40;;;;;;946648;148;27255;-80
2023/10/14 03:10:46;;;;;;;7.83;3.33;;;24.00;57.40;;;;;;944073;148;27427;-79
2023/10/14 03:13:12;;;;;;;5.45;2.98;;;24.00;57.50;;;;;;950281;147;27434;-79
2023/10/14 03:15:39;;;;;;;7.42;3.87;;;24.00;57.60;;;;;;951796;147;27458;-77
2023/10/14 03:18:06;;;;;;;4.17;3.27;;;24.00;57.70;;;;;;945430;148;27479;-80
2023/10/14 03:22:59;;;;;;;4.08;3.15;;;24.00;57.80;;;;;;943397;148;27350;-80
2023/10/14 03:25:27;;;;;;;4.90;3.42;;;23.90;57.80;;;;;;938616;147;27394;-80
2023/10/14 03:27:58;;;;;;;6.25;3.27;;;24.00;58.00;;;;;;939055;150;27380;-78
2023/10/14 03:30:20;;;;;;;4.33;3.65;;;24.00;58.00;;;;;;940836;149;27338;-79
2023/10/14 03:32:45;;;;;;;9.28;4.17;;;23.90;58.00;;;;;;933570;150;27390;-79
2023/10/14 03:35:20;;;;;;;7.33;3.58;;;23.90;58.10;;;;;;950931;147;27802;-80
2023/10/14 03:37:52;;;;;;;6.25;3.87;;;23.90;58.20;;;;;;950056;147;27455;-77
2023/10/14 03:43:05;;;;;;;7.00;3.42;;;23.90;58.30;;;;;;948770;147;27383;-79
2023/10/14 03:45:22;;;;;;;4.28;3.50;;;23.90;58.40;;;;;;949845;145;27427;-79
2023/10/14 03:47:59;;;;;;;10.63;4.50;;;23.90;58.40;;;;;;949183;147;27330;-80
2023/10/14 03:50:23;;;;;;;4.75;3.55;;;23.90;58.60;;;;;;948107;147;27493;-80
2023/10/14 03:52:45;;;;;;;4.70;3.52;;;23.90;58.50;;;;;;938609;150;27369;-80
2023/10/14 03:55:12;;;;;;;7.50;3.92;;;23.90;58.60;;;;;;932285;150;27526;-79
2023/10/14 03:57:37;;;;;;;5.55;3.47;;;23.90;58.60;;;;;;949723;147;27344;-79
2023/10/14 04:00:12;;;;;;;5.80;4.12;;;23.90;58.60;;;;;;933415;150;27377;-80
2023/10/14 04:02:35;;;;;;;5.35;3.98;;;23.90;58.70;;;;;;939099;149;27366;-78
2023/10/14 04:05:07;;;;;;;5.95;3.60;;;23.80;58.60;;;;;;939767;149;27418;-79
2023/10/14 04:07:28;;;;;;;5.08;3.62;;;23.80;58.70;;;;;;933216;150;27337;-80
2023/10/14 04:09:58;;;;;;;6.78;3.47;;;23.80;58.70;;;;;;932813;150;27449;-79
2023/10/14 04:12:40;;;;;;;9.38;4.10;;;23.80;58.70;;;;;;930921;150;27479;-76
2023/10/14 04:14:54;;;;;;;4.28;2.92;;;23.80;58.80;;;;;;946779;147;27402;-79
2023/10/14 04:17:20;;;;;;;6.70;3.30;;;23.70;58.80;;;;;;940381;149;27348;-79
2023/10/14 04:19:46;;;;;;;4.67;3.00;;;23.70;58.80;;;;;;932966;150;27357;-80
2023/10/14 04:24:52;;;;;;;4.78;3.05;;;23.70;58.90;;;;;;949973;147;27435;-80
2023/10/14 04:27:21;;;;;;;8.63;3.17;;;23.70;58.90;;;;;;948856;147;27393;-79
2023/10/14 04:29:57;;;;;;;7.78;3.08;;;23.60;58.90;;;;;;946898;147;27366;-80
2023/10/14 04:32:25;;;;;;;6.20;2.80;;;23.60;58.90;;;;;;927443;151;27301;-77
2023/10/14 04:34:46;;;;;;;7.08;2.70;;;23.60;59.00;;;;;;946351;148;27668;-79
2023/10/14 04:37:20;;;;;;;7.47;2.98;;;23.60;59.00;;;;;;946549;148;27358;-79
2023/10/14 04:39:44;;;;;;;6.97;2.65;;;23.60;59.00;;;;;;945757;147;27348;-74
2023/10/14 04:44:59;;;;;;;3.37;2.22;;;23.50;59.00;;;;;;945903;148;27499;-79
2023/10/14 04:47:37;;;;;;;4.50;2.30;;;23.40;59.00;;;;;;945941;148;27478;-80
2023/10/14 04:50:21;;;;;;;7.97;1.98;;;23.40;59.00;;;;;;944488;148;27481;-79
2023/10/14 04:52:48;;;;;;;4.50;2.62;;;23.30;59.00;;;;;;946818;147;27440;-80
2023/10/14 04:55:20;;;;;;;4.62;2.35;;;23.30;59.30;;;;;;946421;147;27454;-80
2023/10/14 04:57:40;;;;;;;2.52;1.95;;;23.20;59.30;;;;;;945095;148;27290;-80
2023/10/14 05:00:08;;;;;;;4.62;2.22;;;23.20;59.60;;;;;;927862;151;27331;-79
2023/10/14 05:02:30;;;;;;;5.00;2.22;;;23.20;59.50;;;;;;947052;147;28158;-80
2023/10/14 05:04:55;;;;;;;3.83;2.15;;;23.10;59.60;;;;;;930889;150;27794;-77
2023/10/14 05:07:21;;;;;;;5.00;1.82;;;23.10;60.20;;;;;;941728;148;28322;-78
2023/10/14 05:09:56;;;;;;;2.50;1.57;;;23.10;59.70;;;;;;929232;150;27415;-79
2023/10/14 05:12:24;;;;;;;2.92;1.65;;;23.00;60.00;;;;;;945187;148;27203;-79
2023/10/14 05:14:44;;;;;;;3.72;1.32;;;23.00;59.80;;;;;;946155;148;27692;-77
2023/10/14 05:19:42;;;;;;;2.83;1.17;;;23.00;59.90;;;;;;947886;147;27404;-75
2023/10/14 05:22:18;;;;;;;2.35;1.22;;;23.00;60.00;;;;;;928535;150;27324;-75
2023/10/14 05:24:45;;;;;;;1.12;1.02;;;23.00;60.00;;;;;;930767;151;27777;-75
2023/10/14 05:27:04;;;;;;;2.62;0.98;;;22.90;60.00;;;;;;946008;148;27376;-76
2023/10/14 05:29:31;;;;;;;1.65;1.10;;;22.90;60.00;;;;;;943910;147;27287;-76
2023/10/14 05:32:23;;;;;;;3.87;1.40;;;22.90;60.10;;;;;;944625;148;27322;-75
2023/10/14 05:34:25;;;;;;;1.82;1.00;;;22.90;60.20;;;;;;935048;148;27290;-75
2023/10/14 05:36:55;;;;;;;4.62;0.93;;;22.90;60.30;;;;;;947153;147;27354;-75
2023/10/14 05:39:20;;;;;;;5.83;1.10;;;22.90;60.50;;;;;;950043;147;27480;-75
2023/10/14 05:41:58;;;;;;;2.55;0.85;;;22.80;60.50;;;;;;937151;149;27282;-76
2023/10/14 05:44:14;;;;;;;1.12;0.60;;;22.80;60.60;;;;;;928081;150;27476;-75
2023/10/14 05:46:41;;;;;;;3.00;0.88;;;22.80;60.70;;;;;;928219;151;27380;-75
2023/10/14 05:49:06;;;;;;;1.30;0.75;;;22.80;60.80;;;;;;942292;148;27400;-75
2023/10/14 05:51:33;;;;;;;2.47;1.10;;;22.80;61.00;;;;;;926689;150;27430;-76
2023/10/14 05:54:00;;;;;;;1.80;0.95;;;22.70;61.10;;;;;;937156;150;27372;-75
2023/10/14 05:56:28;;;;;;;0.70;0.70;;;22.70;61.50;;;;;;932316;150;27264;-76
2023/10/14 05:58:53;;;;;;;1.65;0.37;;;22.70;62.70;;;;;;929203;150;27518;-76
2023/10/14 06:01:19;;;;;;;0.53;0.45;;;22.60;62.90;;;;;;946918;148;27372;-76
2023/10/14 06:03:46;;;;;;;2.08;0.80;;;22.40;63.00;;;;;;947501;148;27454;-76
2023/10/14 06:06:16;;;;;;;1.40;0.82;;;22.10;63.40;;;;;;946959;147;27373;-76
2023/10/14 06:08:46;;;;;;;2.25;0.50;;;21.80;63.90;;;;;;946012;148;27372;-76
2023/10/14 06:11:10;;;;;;;0.78;0.47;;;21.50;64.90;;;;;;945730;148;27321;-76
2023/10/14 06:13:35;;;;;;;0.53;0.42;;;21.20;65.40;;;;;;942399;148;27411;-76
2023/10/14 06:16:04;;;;;;;0.55;0.30;;;20.90;66.10;;;;;;940862;148;27416;-76
2023/10/14 06:18:29;;;;;;;0.30;0.20;;;20.60;67.10;;;;;;941585;148;27329;-76
2023/10/14 06:20:55;;;;;;;1.07;0.40;;;20.40;67.80;;;;;;947960;147;27384;-76
2023/10/14 06:23:23;;;;;;;0.80;0.35;;;20.20;68.30;;;;;;945577;148;27264;-77
2023/10/14 06:25:48;;;;;;;0.30;0.30;;;20.10;69.10;;;;;;945485;148;27465;-76
2023/10/14 06:28:14;;;;;;;1.57;0.40;;;19.90;69.40;;;;;;946789;147;27399;-76
2023/10/14 06:30:43;;;;;;;0.60;0.50;;;19.80;69.60;;;;;;946094;148;27489;-73
2023/10/14 06:33:08;;;;;;;1.07;0.40;;;19.60;70.00;;;;;;945519;148;27245;-75
2023/10/14 06:35:34;;;;;;;0.50;0.20;;;19.50;70.00;;;;;;947546;148;27301;-73
2023/10/14 06:38:04;;;;;;;0.25;0.20;;;19.40;70.20;;;;;;928965;150;27538;-73
2023/10/14 06:40:35;;;;;;;0.35;0.30;;;19.30;70.60;;;;;;945435;147;27339;-74
2023/10/14 06:42:54;;;;;;;1.02;0.20;;;19.20;71.10;;;;;;945231;147;27364;-73
2023/10/14 06:45:31;;;;;;;0.23;0.23;;;19.10;71.40;;;;;;944511;148;27380;-73
2023/10/14 06:47:51;;;;;;;1.35;0.37;;;19.00;72.60;;;;;;944079;148;27388;-73
2023/10/14 06:50:20;;;;;;;0.30;0.20;;;19.00;72.20;;;;;;946737;147;27439;-73
2023/10/14 06:52:43;;;;;;;0.75;0.30;;;18.90;72.70;;;;;;946817;147;27438;-74
2023/10/14 06:55:10;;;;;;;0.20;0.20;;;18.90;73.50;;;;;;945578;147;27402;-72
2023/10/14 06:57:36;;;;;;;0.62;0.30;;;18.90;73.70;;;;;;945515;148;27365;-74
2023/10/14 07:00:12;;;;;;;0.10;0.10;;;18.90;74.10;;;;;;944988;148;27352;-73
2023/10/14 07:02:36;;;;;;;0.40;0.30;;;18.90;74.30;;;;;;936532;150;27338;-73
2023/10/14 07:05:02;;;;;;;0.40;0.40;;;18.90;74.50;;;;;;947171;148;27281;-73
2023/10/14 07:07:29;;;;;;;0.30;0.30;;;19.00;74.70;;;;;;947495;147;27461;-75
2023/10/14 07:09:55;;;;;;;0.45;0.45;;;19.00;74.70;;;;;;944444;147;27851;-75
2023/10/14 07:12:22;;;;;;;0.60;0.20;;;19.00;75.10;;;;;;945103;147;27396;-73
2023/10/14 07:14:48;;;;;;;0.35;0.30;;;19.10;75.20;;;;;;946245;148;27421;-73
2023/10/14 07:17:22;;;;;;;0.35;0.20;;;19.10;75.70;;;;;;946320;148;27364;-73
2023/10/14 07:19:42;;;;;;;0.55;0.50;;;19.30;76.60;;;;;;944890;148;27250;-77
2023/10/14 07:22:08;;;;;;;0.57;0.30;;;19.40;77.60;;;;;;946359;147;27377;-74
2023/10/14 07:24:37;;;;;;;0.30;0.30;;;19.60;78.10;;;;;;951018;147;27343;-75
2023/10/14 07:27:04;;;;;;;0.47;0.47;;;19.80;78.00;;;;;;926552;150;27496;-73
2023/10/14 07:29:30;;;;;;;0.80;0.40;;;20.00;77.40;;;;;;933068;150;27403;-73
2023/10/14 07:31:57;;;;;;;0.50;0.37;;;20.10;76.70;;;;;;929744;150;27370;-74
2023/10/14 07:34:24;;;;;;;0.30;0.30;;;20.30;76.40;;;;;;950122;147;27831;-77
2023/10/14 07:36:51;;;;;;;1.17;0.40;;;20.30;76.00;;;;;;929575;150;27360;-73
2023/10/14 07:39:29;;;;;;;0.30;0.30;;;20.30;75.90;;;;;;945862;147;27395;-74
2023/10/14 07:41:55;;;;;;;0.55;0.50;;;20.30;75.90;;;;;;945308;147;27357;-74
2023/10/14 07:44:25;;;;;;;0.40;0.40;;;20.30;75.80;;;;;;934612;150;27460;-74
2023/10/14 07:46:52;;;;;;;0.57;0.40;;;20.30;75.70;;;;;;932516;150;27565;-73
2023/10/14 07:49:18;;;;;;;0.55;0.37;;;20.20;75.40;;;;;;946347;147;27333;-72
2023/10/14 07:51:46;;;;;;;0.42;0.35;;;20.20;75.20;;;;;;945473;147;27282;-73
2023/10/14 07:54:12;;;;;;;0.20;0.20;;;20.10;74.60;;;;;;946790;147;27491;-73
2023/10/14 07:56:37;;;;;;;0.03;0.03;;;20.00;74.40;;;;;;945119;147;27456;-76
2023/10/14 07:59:04;;;;;;;0.40;0.40;;;19.90;73.90;;;;;;950102;147;27305;-75
2023/10/14 08:01:31;;;;;;;0.37;0.30;;;19.80;73.40;;;;;;950752;147;27390;-73
2023/10/14 08:03:57;;;;;;;0.30;0.30;;;19.60;73.10;;;;;;928016;150;27953;-74
2023/10/14 08:06:24;;;;;;;1.47;0.70;;;19.40;73.10;;;;;;927048;150;27393;-73
2023/10/14 08:08:51;;;;;;;1.17;0.60;;;19.30;73.20;;;;;;944797;147;27295;-73
2023/10/14 08:11:17;;;;;;;1.52;0.50;;;19.20;72.70;;;;;;927449;150;27500;-74
2023/10/14 08:13:44;;;;;;;4.08;1.50;;;19.10;72.40;;;;;;928098;150;27492;-73
2023/10/14 08:16:11;;;;;;;2.12;1.30;;;19.00;72.50;;;;;;929589;150;28106;-74
2023/10/14 08:18:37;;;;;;;1.55;0.90;;;19.00;72.70;;;;;;945856;148;27394;-73
2023/10/14 08:21:03;;;;;;;3.25;1.17;;;19.30;74.00;;;;;;945989;148;27434;-73
2023/10/14 08:23:30;;;;;;;2.67;1.30;;;19.60;74.90;;;;;;928229;150;27439;-74
2023/10/14 08:25:59;;;;;;;1.47;1.15;;;20.10;75.40;;;;;;926954;150;27366;-72
2023/10/14 08:28:27;;;;;;;1.98;1.27;;;20.80;75.60;;;;;;940370;148;27410;-73
2023/10/14 08:30:53;;;;;;;4.12;1.47;;;21.50;74.60;;;;;;939884;149;27365;-73
2023/10/14 08:33:19;;;;;;;3.22;1.50;;;22.30;72.60;;;;;;952116;147;27453;-77
2023/10/14 08:35:46;;;;;;;3.20;1.50;;;23.00;70.30;;;;;;940310;149;27365;-76
2023/10/14 08:38:19;;;;;;;3.50;1.50;;;23.70;69.20;;;;;;932216;149;27383;-75
2023/10/14 08:40:42;;;;;;;4.12;2.08;;;24.40;67.50;;;;;;932973;150;27394;-76
2023/10/14 08:43:09;;;;;;;2.95;1.27;;;25.00;65.70;;;;;;932167;150;27375;-72
2023/10/14 08:45:39;;;;;;;3.42;1.47;;;25.50;64.10;;;;;;933218;150;27798;-76
2023/10/14 08:48:05;;;;;;;1.98;1.30;;;26.00;62.00;;;;;;943412;148;27421;-74
2023/10/14 08:50:33;;;;;;;3.15;1.37;;;26.50;60.90;;;;;;932657;150;27409;-72
2023/10/14 08:53:00;;;;;;;1.87;1.37;;;26.80;59.50;;;;;;934959;149;27410;-77
2023/10/14 08:55:25;;;;;;;2.90;1.50;;;27.10;58.60;;;;;;933278;149;28137;-75
2023/10/14 08:57:51;;;;;;;3.17;1.62;;;27.30;57.80;;;;;;932646;150;27387;-73
2023/10/14 09:00:20;;;;;;;2.90;1.30;;;27.40;57.30;;;;;;950792;147;27700;-73
2023/10/14 09:02:49;;;;;;;3.87;1.40;;;27.50;56.40;;;;;;950499;147;27360;-72
2023/10/14 09:05:16;;;;;;;2.67;1.57;;;27.60;56.00;;;;;;949054;147;27449;-74
2023/10/14 09:07:43;;;;;;;2.30;1.30;;;27.70;56.20;;;;;;934880;149;27456;-73
2023/10/14 09:10:09;;;;;;;4.95;1.40;;;27.70;55.90;;;;;;950157;147;27421;-73
2023/10/14 09:12:35;;;;;;;4.05;1.70;;;27.80;55.50;;;;;;947602;147;27359;-74
2023/10/14 09:15:02;;;;;;;3.83;1.50;;;27.80;55.00;;;;;;949928;147;27783;-74
2023/10/14 09:17:28;;;;;;;2.98;1.50;;;27.90;54.90;;;;;;951965;147;27364;-76
2023/10/14 09:19:55;;;;;;;2.35;1.50;;;27.90;54.40;;;;;;942006;148;27331;-73
2023/10/14 09:22:22;;;;;;;4.70;1.72;;;27.90;53.70;;;;;;933620;150;27315;-73
2023/10/14 09:24:48;;;;;;;2.17;1.45;;;27.80;53.40;;;;;;949522;147;27373;-74
2023/10/14 09:27:16;;;;;;;3.75;1.70;;;27.70;52.70;;;;;;949973;147;27277;-77
2023/10/14 09:29:41;;;;;;;2.05;1.52;;;27.40;51.90;;;;;;947626;147;27303;-73
2023/10/14 09:32:08;;;;;;;3.45;1.65;;;27.00;51.60;;;;;;944389;150;27352;-75
2023/10/14 09:34:35;;;;;;;4.60;2.00;;;26.60;51.60;;;;;;942973;148;27402;-76
2023/10/14 09:37:10;;;;;;;1.98;1.35;;;26.10;51.60;;;;;;941370;150;27297;-73
2023/10/14 09:39:33;;;;;;;4.67;1.77;;;25.60;51.70;;;;;;942557;148;27435;-75
2023/10/14 09:41:58;;;;;;;4.28;1.57;;;25.10;52.00;;;;;;941862;148;27420;-73
2023/10/14 09:44:24;;;;;;;5.08;1.70;;;24.60;52.30;;;;;;928387;151;27876;-74
2023/10/14 09:46:52;;;;;;;4.40;1.90;;;24.00;52.70;;;;;;927692;151;27338;-76
2023/10/14 09:49:16;;;;;;;3.75;1.57;;;23.60;53.40;;;;;;944660;149;27410;-74
2023/10/14 09:51:48;;;;;;;3.00;1.42;;;23.20;53.90;;;;;;945503;148;27311;-73
2023/10/14 09:54:10;;;;;;;2.20;1.32;;;22.90;54.60;;;;;;942918;150;27370;-73
2023/10/14 09:56:40;;;;;;;3.05;1.65;;;22.70;55.20;;;;;;943294;149;27294;-73
2023/10/14 09:59:03;;;;;;;3.08;1.52;;;22.60;55.70;;;;;;943878;148;27369;-76
2023/10/14 10:01:29;;;;;;;5.42;2.22;;;22.50;56.00;;;;;;929795;151;27383;-75
2023/10/14 10:04:06;;;;;;;2.37;1.50;;;22.50;56.10;;;;;;922925;151;27312;-76
2023/10/14 10:06:52;;;;;;;2.52;1.30;;;22.50;56.10;;;;;;946201;148;27390;-75
2023/10/14 10:09:54;;;;;;;1.57;1.20;;;22.60;56.10;;;;;;946161;148;27365;-76
2023/10/14 10:12:20;;;;;;;4.28;1.30;;;22.60;55.70;;;;;;925838;151;27371;-75
2023/10/14 10:14:47;;;;;;;4.12;1.80;;;22.60;55.50;;;;;;943634;149;27338;-75
2023/10/14 10:17:12;;;;;;;4.47;1.37;;;22.60;55.30;;;;;;937954;151;27356;-76
2023/10/14 10:19:58;;;;;;;4.20;1.70;;;22.60;55.10;;;;;;943799;149;27634;-75
2023/10/14 10:22:25;;;;;;;4.70;1.77;;;22.50;55.00;;;;;;942527;148;27385;-75
2023/10/14 10:24:53;;;;;;;2.20;1.55;;;22.40;54.80;;;;;;942740;148;27435;-75
2023/10/14 10:27:17;;;;;;;3.67;1.62;;;22.30;54.90;;;;;;944140;149;27453;-75
2023/10/14 10:29:45;;;;;;;1.67;1.50;;;22.10;54.60;;;;;;941197;148;27383;-75
2023/10/14 10:32:16;;;;;;;2.90;1.72;;;22.00;54.60;;;;;;946977;148;27697;-75
2023/10/14 10:34:43;;;;;;;3.08;1.62;;;21.90;54.40;;;;;;945190;148;27367;-76
2023/10/14 10:37:10;;;;;;;4.28;1.70;;;21.80;54.30;;;;;;933591;148;27434;-76
2023/10/14 10:39:37;;;;;;;2.35;1.37;;;21.70;54.50;;;;;;946320;149;27309;-76
2023/10/14 10:42:04;;;;;;;3.20;1.35;;;21.60;54.10;;;;;;928870;152;27470;-75
2023/10/14 10:44:33;;;;;;;3.75;1.72;;;21.50;54.00;;;;;;927273;151;27456;-76
2023/10/14 10:46:56;;;;;;;2.27;1.30;;;21.40;54.00;;;;;;938470;149;27366;-75
2023/10/14 10:49:44;;;;;;;3.25;1.20;;;21.30;54.10;;;;;;928938;150;27404;-76
2023/10/14 10:52:13;;;;;;;3.00;1.77;;;21.20;54.10;;;;;;924088;150;27398;-76
2023/10/14 10:54:40;;;;;;;3.40;1.50;;;21.20;54.30;;;;;;946984;149;27395;-76
2023/10/14 10:57:07;;;;;;;2.80;1.50;;;21.20;54.40;;;;;;945893;149;27385;-76
2023/10/14 10:59:36;;;;;;;2.87;1.22;;;21.10;54.30;;;;;;941001;149;27450;-76
2023/10/14 11:02:00;;;;;;;4.83;1.60;;;21.10;54.60;;;;;;942248;149;27371;-76
2023/10/14 11:04:26;;;;;;;2.67;1.40;;;21.20;54.70;;;;;;942587;149;27329;-76
2023/10/14 11:06:53;;;;;;;3.70;1.50;;;21.20;54.60;;;;;;942584;149;27360;-76
2023/10/14 11:09:20;;;;;;;3.02;1.65;;;21.20;54.60;;;;;;943153;149;27473;-76
2023/10/14 11:11:48;;;;;;;2.90;1.80;;;21.30;54.50;;;;;;941071;150;27482;-76
2023/10/14 11:14:17;;;;;;;3.27;1.75;;;21.30;54.50;;;;;;948344;148;27378;-76
2023/10/14 11:16:45;;;;;;;2.60;1.35;;;21.30;54.40;;;;;;948539;148;27369;-76
2023/10/14 11:19:12;;;;;;;1.47;1.22;;;21.30;54.10;;;;;;945946;148;27375;-76
2023/10/14 11:21:39;;;;;;;3.37;1.40;;;21.40;54.10;;;;;;929449;150;27377;-76
2023/10/14 11:24:07;;;;;;;6.28;2.47;;;21.40;54.00;;;;;;934146;151;27496;-76
2023/10/14 11:26:31;;;;;;;2.33;1.60;;;21.30;53.90;;;;;;945367;149;27331;-76
2023/10/14 11:28:59;;;;;;;2.65;1.57;;;21.30;53.70;;;;;;946413;148;27372;-76
2023/10/14 11:31:25;;;;;;;2.33;1.40;;;21.20;53.70;;;;;;945208;150;27388;-76
2023/10/14 11:33:55;;;;;;;4.03;1.62;;;21.10;53.90;;;;;;944828;148;27318;-76
2023/10/14 11:36:22;;;;;;;2.15;1.40;;;21.10;54.20;;;;;;943108;148;27434;-76
2023/10/14 11:38:47;;;;;;;3.83;2.10;;;21.10;54.40;;;;;;945207;149;27460;-76
2023/10/14 11:41:15;;;;;;;2.20;1.70;;;21.10;54.60;;;;;;944080;149;27361;-76
2023/10/14 11:43:46;;;;;;;1.62;1.27;;;21.20;54.70;;;;;;943376;149;27376;-76
2023/10/14 11:46:13;;;;;;;2.45;1.70;;;21.30;54.60;;;;;;943756;149;27477;-76
2023/10/14 11:48:39;;;;;;;2.70;1.40;;;21.40;54.40;;;;;;926920;151;27384;-76
2023/10/14 11:51:12;;;;;;;2.17;1.15;;;21.50;54.00;;;;;;931631;151;27872;-76
2023/10/14 11:53:44;;;;;;;1.70;1.02;;;21.60;53.70;;;;;;928669;151;27486;-76
2023/10/14 11:56:13;;;;;;;6.08;1.82;;;21.60;53.50;;;;;;929797;151;27321;-76
2023/10/14 11:58:42;;;;;;;3.08;1.35;;;21.60;53.40;;;;;;942947;148;27935;-76
2023/10/14 12:01:12;;;;;;;2.35;1.10;;;21.70;53.20;;;;;;944926;149;27477;-76
2023/10/14 12:03:38;;;;;;;1.30;1.12;;;21.70;53.10;;;;;;943230;148;27403;-76
2023/10/14 12:06:11;;;;;;;2.70;0.98;;;21.70;53.20;;;;;;931586;151;27386;-76
2023/10/14 12:08:37;;;;;;;2.77;1.20;;;21.70;52.90;;;;;;928100;151;27402;-75
2023/10/14 12:11:04;;;;;;;3.20;1.00;;;21.70;52.70;;;;;;944999;148;27375;-76
2023/10/14 12:13:30;;;;;;;1.77;1.00;;;21.70;52.60;;;;;;922943;151;27455;-76
2023/10/14 12:15:57;;;;;;;2.50;1.22;;;21.70;52.50;;;;;;932731;151;27460;-76
2023/10/14 12:18:23;;;;;;;1.87;1.30;;;21.70;52.30;;;;;;944740;149;27326;-76
2023/10/14 12:20:51;;;;;;;2.25;1.30;;;21.70;52.40;;;;;;942827;149;28055;-73
2023/10/14 12:23:19;;;;;;;2.15;1.35;;;21.70;52.50;;;;;;944417;148;27409;-73
2023/10/14 12:25:46;;;;;;;1.45;0.90;;;21.70;52.60;;;;;;944190;148;27591;-75
2023/10/14 12:28:17;;;;;;;1.47;1.02;;;21.70;52.40;;;;;;943229;148;27339;-73
2023/10/14 12:30:42;;;;;;;3.15;1.40;;;21.60;52.20;;;;;;941436;148;27451;-73
2023/10/14 12:33:08;;;;;;;3.20;1.00;;;21.60;52.10;;;;;;951357;147;27449;-72
2023/10/14 12:35:40;;;;;;;3.40;1.42;;;21.50;52.00;;;;;;951202;147;27353;-75
2023/10/14 12:38:01;;;;;;;2.12;1.85;;;21.50;52.00;;;;;;935763;150;27398;-73
2023/10/14 12:40:33;;;;;;;1.67;0.90;;;21.40;52.00;;;;;;935809;150;27471;-75
2023/10/14 12:43:02;;;;;;;1.45;0.90;;;21.40;51.90;;;;;;927625;150;29097;-72
2023/10/14 12:45:27;;;;;;;2.83;1.00;;;21.30;51.80;;;;;;927235;151;27492;-73
2023/10/14 12:47:56;;;;;;;2.00;0.90;;;21.20;51.80;;;;;;943330;149;27358;-76
2023/10/14 12:50:20;;;;;;;4.00;1.30;;;21.20;51.80;;;;;;944851;147;27321;-73
2023/10/14 12:52:50;;;;;;;2.50;0.90;;;21.20;51.80;;;;;;935313;149;27370;-75
2023/10/14 12:55:22;;;;;;;2.33;0.90;;;21.10;51.60;;;;;;929557;150;27989;-72
2023/10/14 12:57:44;;;;;;;2.87;1.05;;;21.00;51.60;;;;;;925874;150;27375;-72
2023/10/14 13:00:18;;;;;;;3.17;1.40;;;21.00;51.50;;;;;;924767;150;27427;-77
2023/10/14 13:02:39;;;;;;;1.57;1.45;;;20.90;51.40;;;;;;942910;148;27474;-74
2023/10/14 13:05:05;;;;;;;1.00;0.90;;;20.70;51.40;;;;;;931330;148;27367;-74
2023/10/14 13:07:31;;;;;;;2.72;1.07;;;20.60;51.40;;;;;;929704;150;27459;-72